Station info - map view · info · telemetry · weather · raw · status · beacons · messages · bulletins · browse · moving · my account
Callsign, ship name or locator: Clear       
It is possible to search using wildcards (*?) after a prefix. Example: OH*
APRS station DM2PF-9 - show graphs
Map loading...
Comment: unterwegs
Mic-E message: En route
Location: 49°27.73' N 8°33.96' E - locator JN49GL70WW - show map - static map
0.8 miles South bearing 184° from Ilvesheim, Regierungsbezirk Karlsruhe, Baden-Württemberg, Germany [?]
1.8 miles West bearing 281° from Edingen-Neckarhausen, Regierungsbezirk Karlsruhe, Baden-Württemberg, Germany
45.5 miles South bearing 187° from Frankfurt am Main, Regierungsbezirk Darmstadt, Hesse, Germany
54.5 miles Northwest bearing 330° from Stuttgart, Regierungsbezirk Stuttgart, Baden-Württemberg, Germany
Last position: 2019-04-22 09:19:18 EDT (1d 3h21m ago)
2019-04-22 15:19:18 CEST local time at Ilvesheim, Germany [?]
Altitude: 341 ft
Course: 235°
Speed: 22 MPH
Device: Kenwood: TM-D710 (rig)
Last path: DM2PF-9>TY2WW3 via DB0RO*,WIDE1,WIDE2-2,qAR,DH1GHL (good)
Positions stored: 9211
Packet rate: 46 seconds between packets on average during 2256 seconds.
Stations near current position of DM2PF-9 - show more
callsign distance last heard - EDT      callsign distance last heard - EDT
CW20910.6 miles 319°2019-04-23 12:01:10 P21305381.4 miles 277°2019-04-01 15:06:51
DF9MJ-72.0 miles 79°2019-04-22 15:53:53 DC8WAN2.0 miles 296°2019-04-22 06:40:24
DL2FHO-92.1 miles 290°2019-04-02 03:25:35 EDFM2.3 miles 288°2019-04-23 12:40:17
A10-Treff2.7 miles 214°2019-04-12 17:41:48 DB0CPU-113.8 miles 278°2019-04-23 11:53:34
DB0CPU-73.8 miles 278°2019-04-23 11:47:24 DB0CPU3.8 miles 278°2019-04-23 12:34:23
DG9MF3.8 miles 284°2019-04-12 18:20:32 A06-Treff3.9 miles 125°2019-04-17 17:41:43
A41-Treff4.1 miles 31°2019-04-12 17:41:48 DH7IF-94.2 miles 133°2019-04-22 10:56:35
alxwht4.2 miles 281°2019-04-08 09:02:27 DG4IAK-94.4 miles 129°2019-04-17 06:43:16
DG4IAK-54.4 miles 130°2019-04-23 12:18:45 DG4IAK-154.6 miles 125°2019-04-15 10:57:29
PS-DB4IQ5.3 miles 298°2019-04-23 12:02:21 DB4IQ-N5.3 miles 298°2019-04-20 16:14:53
Stations which heard DM2PF-9 directly on radio –
callsign pkts first heard - EDT last heard longest (tx => rx) longest at - EDT
DB0MI 15 2019-04-17 07:58:02 2019-04-22 08:55:09 JO40IL > JN49PS 54.5 miles 153° 2019-04-22 08:03:26
DB0MYK 1 2019-04-22 08:44:42 2019-04-22 08:44:42 JN49HV > JO30OJ 71.3 miles 300° 2019-04-22 08:44:42
DB0GV 11 2019-04-17 07:46:03 2019-04-22 08:16:43 JO40II > JO40KD 16.3 miles 153° 2019-04-22 08:16:43
DB0KT 63 2019-04-17 07:12:32 2019-04-22 08:49:39 JN49GN > JO40PL 72.5 miles 26° 2019-04-17 07:12:32
DB0IDS 7 2019-04-17 07:25:32 2019-04-22 08:29:42 JN49GS > JO40CF 33.6 miles 337° 2019-04-17 07:25:32
DB0ASF 32 2019-04-17 07:44:02 2019-04-22 08:32:11 JO40IL > JO40NB 31.9 miles 148° 2019-04-22 08:04:55
DB0RO 25 2019-04-17 06:30:23 2019-04-22 09:19:18 JN49GO > JN49AF 33.8 miles 224° 2019-04-17 07:15:03
DB0TFM-1 3 2019-04-17 06:46:02 2019-04-22 09:08:11 JN49GN > JN48ES 54.9 miles 187° 2019-04-22 09:08:11
DB0BOS 6 2019-04-17 07:26:01 2019-04-22 08:55:10 JO40II > JN49LR 42.5 miles 166° 2019-04-22 08:16:42
DB0GSH 24 2019-04-17 13:37:41 2019-04-22 05:06:48 JO52EE > JO51EV 19.2 miles 178° 2019-04-17 14:01:47
DB0TAN 6 2019-04-17 08:32:03 2019-04-17 12:01:54 JO40ST > JO40XL 27.8 miles 141° 2019-04-17 12:01:54
DB0DRI 2 2019-04-22 06:01:18 2019-04-22 06:36:48 JO41QB > JO41MS 51.9 miles 345° 2019-04-22 06:36:48
DB3FAT 16 2019-04-17 07:52:31 2019-04-22 08:19:11 JO40IH > JO40MD 19.4 miles 127° 2019-04-22 08:19:11
F5ZEE 1 2019-04-17 06:31:22 2019-04-17 06:31:22 JN49FA > JN38TX 37.9 miles 268° 2019-04-17 06:31:22
DB0HU 5 2019-04-17 07:58:33 2019-04-22 08:19:11 JO40IH > JO40LC 17.7 miles 137° 2019-04-22 08:19:11
DK3RW-2 11 2019-04-22 07:12:15 2019-04-22 07:50:29 JO40PS > JO40LQ 14.4 miles 238° 2019-04-22 07:12:15
DB0FUL 23 2019-04-17 08:27:33 2019-04-17 12:17:40 JO40SW > JO40UO 22.8 miles 166° 2019-04-17 12:17:40
DL4OAQ-1 5 2019-04-17 13:43:10 2019-04-17 13:52:10 JO51BX > JO42XE 16.4 miles 332° 2019-04-17 13:43:10
DB0FDA 53 2019-04-17 07:12:30 2019-04-22 09:02:08 JO40II > JN49HU 32.8 miles 184° 2019-04-22 08:16:52
DL1FX 20 2019-04-17 07:18:31 2019-04-22 09:02:08 JN49HW > JN49GR 13.1 miles 187° 2019-04-17 07:34:31
DB0FTS-10 1 2019-04-17 12:07:12 2019-04-17 12:07:12 JO40ST > JO50IO 53.9 miles 105° 2019-04-17 12:07:12
DC4ZZ 14 2019-04-17 07:49:02 2019-04-22 08:19:41 JO40IH > JO40LC 17.6 miles 136° 2019-04-22 08:19:41
DC1MD-10 1 2019-04-17 08:02:03 2019-04-17 08:02:03 JO40MD > JO40MF 5.1 miles 20° 2019-04-17 08:02:03
DB0ROD 1 2019-04-17 14:01:41 2019-04-17 14:01:41 JO52EE > JO42QH 42.3 miles 281° 2019-04-17 14:01:41
DC4AT 34 2019-04-17 13:10:40 2019-04-22 05:33:18 JO41WO > JO51AR 11.1 miles 34° 2019-04-17 13:10:40
DG5AV-10 11 2019-04-17 13:18:10 2019-04-22 05:29:48 JO52CC > JO41VS 26.2 miles 218° 2019-04-22 04:53:50
DB0OHA-10 4 2019-04-17 13:11:10 2019-04-22 05:42:48 JO41WM > JO51EP 22.1 miles 64° 2019-04-22 05:42:48
DG7NFG-11 1 2019-04-17 07:58:33 2019-04-17 07:58:33 JO40LC > JN49PX 18.1 miles 121° 2019-04-17 07:58:33
DB0WIM 1 2019-04-22 09:16:21 2019-04-22 09:16:21 JN49GK > JN49CD 26.2 miles 215° 2019-04-22 09:16:21
DB0LDK 13 2019-04-22 07:39:55 2019-04-22 08:04:29 JO40NR > JO40GM 29.7 miles 246° 2019-04-22 07:39:55
DO7AD-10 1 2019-04-17 14:02:11 2019-04-17 14:02:11 JO52EE > JO51KU 29.8 miles 140° 2019-04-17 14:02:11
DG7FDL-10 4 2019-04-17 11:49:33 2019-04-17 12:13:09 JO40TS > JO40UU 8.5 miles 33° 2019-04-17 11:49:33
DL7FCG 11 2019-04-17 07:52:31 2019-04-22 08:19:11 JO40IH > JO40MD 19.4 miles 127° 2019-04-22 08:19:11
DL9FCV-10 3 2019-04-17 08:08:33 2019-04-17 08:11:02 JO40OE > JO40NF 3.5 miles 288° 2019-04-17 08:11:02
DL1ZAX-10 13 2019-04-17 12:35:09 2019-04-17 12:47:09 JO41RE > JO41SG 6.6 miles 34° 2019-04-17 12:35:09
DL4AXL-9 4 2019-04-17 12:41:10 2019-04-17 12:48:41 JO41SG > JO41TI 6.1 miles 28° 2019-04-17 12:41:10
DB0REI-10 8 2019-04-22 07:39:56 2019-04-22 07:53:13 JO40NR > JO40KO 12.5 miles 241° 2019-04-22 07:39:56
DB0HAS-10 1 2019-04-22 08:13:07 2019-04-22 08:13:07 JO40II > JO50HA 87.0 miles 106° 2019-04-22 08:13:07
DB0USL-2 6 2019-04-17 12:58:40 2019-04-22 05:49:48 JO41VJ > JO41TQ 19.5 miles 334° 2019-04-22 05:49:48
DB0EJ 13 2019-04-17 07:32:31 2019-04-22 08:37:11 JN49HV > JO40GD 17.8 miles 355° 2019-04-17 07:32:31
DB0TVH-10 1 2019-04-17 13:42:40 2019-04-17 13:42:40 JO51BW > JO42UJ 33.8 miles 330° 2019-04-17 13:42:40
DL0OHA-10 6 2019-04-17 13:29:10 2019-04-22 05:14:18 JO51BV > JO51CR 9.7 miles 169° 2019-04-22 05:06:18
DB0GIS-10 31 2019-04-17 07:32:32 2019-04-22 08:17:11 JN49HV > JO40JN 46.4 miles 9° 2019-04-17 07:32:32
DB0IUK 7 2019-04-17 07:15:01 2019-04-22 09:08:07 JN49GN > JN49HP 7.6 miles 24° 2019-04-22 09:08:07
DB1SB-10 8 2019-04-17 06:38:33 2019-04-17 06:54:32 JN49GC > JN49IF 12.6 miles 31° 2019-04-17 06:38:33
DB0AIS 25 2019-04-17 07:25:31 2019-04-22 08:46:43 JO40IH > JN49HX 21.5 miles 190° 2019-04-22 08:20:11
DJ1AA-10 5 2019-04-17 13:28:40 2019-04-22 05:28:48 JO41XR > JO41XU 9.7 miles 5° 2019-04-22 05:28:48
DB0KG 3 2019-04-17 06:48:32 2019-04-17 06:55:34 JN49HG > JN49JC 14.0 miles 149° 2019-04-17 06:55:34
DL5OCD-7 4 2019-04-22 04:50:47 2019-04-22 04:59:47 JO51BX > JO42XH 22.4 miles 339° 2019-04-22 04:59:47
DB0CPU-11 13 2019-04-17 07:04:31 2019-04-22 09:16:47 JN49GM > JN49FL 5.7 miles 217° 2019-04-22 09:08:38
DB0OI 13 2019-04-17 13:53:42 2019-04-18 03:00:34 JO52CC > JO52GG 16.9 miles 51° 2019-04-17 13:53:42
DG8FEZ-10 1 2019-04-17 13:39:40 2019-04-17 13:39:40 JO51BV > JO51DT 11.1 miles 131° 2019-04-17 13:39:40
DF7OA-9 5 2019-04-22 05:01:17 2019-04-22 05:18:17 JO51AS > JO41XX 12.7 miles 348° 2019-04-22 05:18:17
DB0PET-10 15 2019-04-17 08:27:02 2019-04-17 08:43:02 JO40SI > JO40UN 16.2 miles 34° 2019-04-17 08:27:02
DB0HSK 1 2019-04-22 06:33:17 2019-04-22 06:33:17 JO41RB > JO41DJ 54.6 miles 296° 2019-04-22 06:33:17
DO6GZ-13 1 2019-04-22 05:19:17 2019-04-22 05:19:17 JO51AS > JO41WX 16.0 miles 329° 2019-04-22 05:19:17
DK5AH-10 10 2019-04-17 13:03:40 2019-04-22 05:43:48 JO41XP > JO41WM 9.1 miles 195° 2019-04-22 05:35:18
DO1CV-15 3 2019-04-22 08:04:26 2019-04-22 08:12:37 JO40IL > JO40KI 10.0 miles 142° 2019-04-22 08:04:26
DB0KH-10 90 2019-04-17 08:37:02 2019-04-22 08:27:41 JO40HE > JO40RV 61.5 miles 35° 2019-04-22 08:27:41
DK3RW-6 3 2019-04-22 07:41:55 2019-04-22 07:47:55 JO40NR > JO40MO 7.4 miles 205° 2019-04-22 07:41:55
DB0PTB 15 2019-04-17 13:55:41 2019-04-18 02:58:07 JO52DD > JO52FH 13.9 miles 38° 2019-04-17 13:55:41

Only position packets which were originated by the station are shown here. The range statistics show some extra long hops, because some digipeaters do not correctly add themselves to the digipeater path. Please check the raw packets.
About this site
This page shows real-time information collected from the Automatic Position Reporting System Internet network (APRS-IS). APRS is used by amateur (ham) radio operators to transmit real-time position information, weather data, telemetry and messages over the radio. A vehicle equipped with a GPS receiver, a VHF transmitter or HF transceiver and a small computer device called a tracker transmits it's location, speed and course in a small data packet, which is then received by a nearby iGate receiving site which forwards the packet on the Internet. Systems connected to the Internet can send information on the APRS-IS without a radio transmitter, or collect and display information transmitted anywhere in the world.
FAQ · Blog · Discussion group · Linking to aprs.fi · AIS sites · Service status · Database statistics · Advertising on aprs.fi · Technical details · API · Change log · Planned changes · Credits and thanks · Terms Of Service · iPhone/iPad APRS